sensor_id;sensor_type;location;lat;lon;timestamp;P1;durP1;ratioP1;P2;durP2;ratioP2
73107;SDS011;61559;50.476;15.588;2023-02-21T00:00:34;12.30;;;3.70;;
73107;SDS011;61559;50.476;15.588;2023-02-21T00:03:24;7.70;;;3.00;;
73107;SDS011;61559;50.476;15.588;2023-02-21T00:06:13;14.00;;;3.90;;
73107;SDS011;61559;50.476;15.588;2023-02-21T00:09:01;13.70;;;3.60;;
73107;SDS011;61559;50.476;15.588;2023-02-21T00:11:50;12.20;;;4.00;;
73107;SDS011;61559;50.476;15.588;2023-02-21T00:14:38;8.40;;;2.80;;
73107;SDS011;61559;50.476;15.588;2023-02-21T00:17:27;5.40;;;2.20;;
73107;SDS011;61559;50.476;15.588;2023-02-21T00:20:17;14.70;;;3.40;;
73107;SDS011;61559;50.476;15.588;2023-02-21T00:23:06;5.90;;;2.80;;
73107;SDS011;61559;50.476;15.588;2023-02-21T00:25:55;10.40;;;3.90;;
73107;SDS011;61559;50.476;15.588;2023-02-21T00:28:44;8.30;;;2.30;;
73107;SDS011;61559;50.476;15.588;2023-02-21T00:31:32;6.60;;;2.80;;
73107;SDS011;61559;50.476;15.588;2023-02-21T00:34:21;11.20;;;3.20;;
73107;SDS011;61559;50.476;15.588;2023-02-21T00:37:10;8.60;;;2.10;;
73107;SDS011;61559;50.476;15.588;2023-02-21T00:39:58;8.30;;;3.30;;
73107;SDS011;61559;50.476;15.588;2023-02-21T00:42:47;10.40;;;3.40;;
73107;SDS011;61559;50.476;15.588;2023-02-21T00:45:35;7.30;;;2.60;;
73107;SDS011;61559;50.476;15.588;2023-02-21T00:48:24;5.30;;;2.80;;
73107;SDS011;61559;50.476;15.588;2023-02-21T00:51:13;5.70;;;2.30;;
73107;SDS011;61559;50.476;15.588;2023-02-21T00:54:02;6.00;;;2.60;;
73107;SDS011;61559;50.476;15.588;2023-02-21T00:56:51;5.40;;;2.70;;
73107;SDS011;61559;50.476;15.588;2023-02-21T00:59:39;4.00;;;2.40;;
73107;SDS011;61559;50.476;15.588;2023-02-21T01:02:28;5.70;;;2.50;;
73107;SDS011;61559;50.476;15.588;2023-02-21T01:05:17;9.70;;;3.40;;
73107;SDS011;61559;50.476;15.588;2023-02-21T01:08:06;6.10;;;3.00;;
73107;SDS011;61559;50.476;15.588;2023-02-21T01:10:54;6.70;;;2.70;;
73107;SDS011;61559;50.476;15.588;2023-02-21T01:13:43;8.10;;;2.60;;
73107;SDS011;61559;50.476;15.588;2023-02-21T01:16:32;10.80;;;3.00;;
73107;SDS011;61559;50.476;15.588;2023-02-21T01:19:25;5.00;;;2.40;;
73107;SDS011;61559;50.476;15.588;2023-02-21T01:22:14;4.20;;;2.00;;
73107;SDS011;61559;50.476;15.588;2023-02-21T01:25:03;5.60;;;2.80;;
73107;SDS011;61559;50.476;15.588;2023-02-21T01:27:53;4.70;;;1.90;;
73107;SDS011;61559;50.476;15.588;2023-02-21T01:30:41;7.30;;;2.40;;
73107;SDS011;61559;50.476;15.588;2023-02-21T01:33:34;5.80;;;2.30;;
73107;SDS011;61559;50.476;15.588;2023-02-21T01:36:24;5.70;;;2.20;;
73107;SDS011;61559;50.476;15.588;2023-02-21T01:39:13;3.90;;;1.70;;
73107;SDS011;61559;50.476;15.588;2023-02-21T01:42:02;8.10;;;2.00;;
73107;SDS011;61559;50.476;15.588;2023-02-21T01:48:21;5.10;;;2.20;;
73107;SDS011;61559;50.476;15.588;2023-02-21T01:51:12;4.40;;;1.90;;
73107;SDS011;61559;50.476;15.588;2023-02-21T01:54:04;3.20;;;2.20;;
73107;SDS011;61559;50.476;15.588;2023-02-21T01:56:55;4.20;;;2.40;;
73107;SDS011;61559;50.476;15.588;2023-02-21T01:59:45;4.40;;;2.30;;
73107;SDS011;61559;50.476;15.588;2023-02-21T02:02:36;4.90;;;2.10;;
73107;SDS011;61559;50.476;15.588;2023-02-21T02:05:28;4.50;;;2.00;;
73107;SDS011;61559;50.476;15.588;2023-02-21T02:08:17;5.80;;;2.20;;
73107;SDS011;61559;50.476;15.588;2023-02-21T02:11:13;2.80;;;1.60;;
73107;SDS011;61559;50.476;15.588;2023-02-21T02:14:21;3.40;;;1.60;;
73107;SDS011;61559;50.476;15.588;2023-02-21T02:17:11;3.20;;;1.50;;
73107;SDS011;61559;50.476;15.588;2023-02-21T02:19:59;4.80;;;2.20;;
73107;SDS011;61559;50.476;15.588;2023-02-21T02:22:53;4.70;;;1.80;;
73107;SDS011;61559;50.476;15.588;2023-02-21T02:25:51;3.70;;;1.70;;
73107;SDS011;61559;50.476;15.588;2023-02-21T02:28:45;3.10;;;1.40;;
73107;SDS011;61559;50.476;15.588;2023-02-21T02:31:33;4.00;;;1.70;;
73107;SDS011;61559;50.476;15.588;2023-02-21T02:37:22;5.00;;;2.00;;
73107;SDS011;61559;50.476;15.588;2023-02-21T02:40:01;4.10;;;1.90;;
73107;SDS011;61559;50.476;15.588;2023-02-21T02:42:43;4.50;;;2.30;;
73107;SDS011;61559;50.476;15.588;2023-02-21T02:45:21;3.40;;;2.20;;
73107;SDS011;61559;50.476;15.588;2023-02-21T02:47:55;4.50;;;2.70;;
73107;SDS011;61559;50.476;15.588;2023-02-21T02:50:33;2.80;;;2.00;;
73107;SDS011;61559;50.476;15.588;2023-02-21T02:53:07;4.40;;;2.10;;
73107;SDS011;61559;50.476;15.588;2023-02-21T02:55:39;2.40;;;1.60;;
73107;SDS011;61559;50.476;15.588;2023-02-21T02:58:15;4.60;;;2.10;;
73107;SDS011;61559;50.476;15.588;2023-02-21T03:00:53;3.80;;;2.00;;
73107;SDS011;61559;50.476;15.588;2023-02-21T03:03:44;4.40;;;2.20;;
73107;SDS011;61559;50.476;15.588;2023-02-21T03:06:24;4.10;;;1.70;;
73107;SDS011;61559;50.476;15.588;2023-02-21T03:09:05;3.80;;;1.80;;
73107;SDS011;61559;50.476;15.588;2023-02-21T03:11:45;4.50;;;2.00;;
73107;SDS011;61559;50.476;15.588;2023-02-21T03:14:27;1.90;;;1.30;;
73107;SDS011;61559;50.476;15.588;2023-02-21T03:17:05;2.90;;;1.50;;
73107;SDS011;61559;50.476;15.588;2023-02-21T03:19:40;2.30;;;1.70;;
73107;SDS011;61559;50.476;15.588;2023-02-21T03:22:15;3.20;;;2.00;;
73107;SDS011;61559;50.476;15.588;2023-02-21T03:24:50;4.80;;;1.90;;
73107;SDS011;61559;50.476;15.588;2023-02-21T03:27:23;4.40;;;1.70;;
73107;SDS011;61559;50.476;15.588;2023-02-21T03:29:57;3.40;;;1.90;;
73107;SDS011;61559;50.476;15.588;2023-02-21T03:32:31;6.40;;;1.90;;
73107;SDS011;61559;50.476;15.588;2023-02-21T03:35:05;3.10;;;1.70;;
73107;SDS011;61559;50.476;15.588;2023-02-21T03:37:37;3.10;;;1.20;;
73107;SDS011;61559;50.476;15.588;2023-02-21T03:40:13;2.20;;;1.40;;
73107;SDS011;61559;50.476;15.588;2023-02-21T03:42:46;1.90;;;1.30;;
73107;SDS011;61559;50.476;15.588;2023-02-21T03:45:17;7.50;;;1.10;;
73107;SDS011;61559;50.476;15.588;2023-02-21T03:47:48;3.70;;;1.20;;
73107;SDS011;61559;50.476;15.588;2023-02-21T03:52:49;2.40;;;1.30;;
73107;SDS011;61559;50.476;15.588;2023-02-21T03:55:20;1.70;;;1.10;;
73107;SDS011;61559;50.476;15.588;2023-02-21T04:00:20;2.10;;;1.00;;
73107;SDS011;61559;50.476;15.588;2023-02-21T04:02:51;2.00;;;1.20;;
73107;SDS011;61559;50.476;15.588;2023-02-21T04:05:23;2.90;;;1.10;;
73107;SDS011;61559;50.476;15.588;2023-02-21T04:07:55;3.50;;;1.40;;
73107;SDS011;61559;50.476;15.588;2023-02-21T04:10:26;2.00;;;1.10;;
73107;SDS011;61559;50.476;15.588;2023-02-21T04:13:01;2.80;;;1.40;;
73107;SDS011;61559;50.476;15.588;2023-02-21T04:15:32;1.70;;;1.10;;
73107;SDS011;61559;50.476;15.588;2023-02-21T04:20:33;1.80;;;1.00;;
73107;SDS011;61559;50.476;15.588;2023-02-21T04:23:04;10.20;;;4.40;;
73107;SDS011;61559;50.476;15.588;2023-02-21T04:25:35;6.70;;;2.80;;
73107;SDS011;61559;50.476;15.588;2023-02-21T04:28:06;2.30;;;1.30;;
73107;SDS011;61559;50.476;15.588;2023-02-21T04:35:36;1.60;;;1.10;;
73107;SDS011;61559;50.476;15.588;2023-02-21T04:38:07;3.60;;;1.30;;
73107;SDS011;61559;50.476;15.588;2023-02-21T04:43:08;5.10;;;2.00;;
73107;SDS011;61559;50.476;15.588;2023-02-21T04:45:39;5.10;;;2.40;;
73107;SDS011;61559;50.476;15.588;2023-02-21T04:50:40;3.00;;;1.30;;
73107;SDS011;61559;50.476;15.588;2023-02-21T04:53:11;2.30;;;1.50;;
73107;SDS011;61559;50.476;15.588;2023-02-21T04:58:11;2.80;;;1.40;;
73107;SDS011;61559;50.476;15.588;2023-02-21T05:00:42;3.30;;;2.00;;
73107;SDS011;61559;50.476;15.588;2023-02-21T05:03:13;3.30;;;1.70;;
73107;SDS011;61559;50.476;15.588;2023-02-21T05:05:45;4.60;;;1.90;;
73107;SDS011;61559;50.476;15.588;2023-02-21T05:10:45;4.30;;;1.90;;
73107;SDS011;61559;50.476;15.588;2023-02-21T05:13:16;5.10;;;1.70;;
73107;SDS011;61559;50.476;15.588;2023-02-21T05:15:48;2.20;;;1.60;;
73107;SDS011;61559;50.476;15.588;2023-02-21T05:18:19;3.80;;;1.70;;
73107;SDS011;61559;50.476;15.588;2023-02-21T05:20:54;2.70;;;1.80;;
73107;SDS011;61559;50.476;15.588;2023-02-21T05:23:25;4.20;;;1.70;;
73107;SDS011;61559;50.476;15.588;2023-02-21T05:26:03;4.30;;;2.00;;
73107;SDS011;61559;50.476;15.588;2023-02-21T05:28:36;3.20;;;1.90;;
73107;SDS011;61559;50.476;15.588;2023-02-21T05:31:11;2.50;;;1.40;;
73107;SDS011;61559;50.476;15.588;2023-02-21T05:33:43;4.60;;;1.80;;
73107;SDS011;61559;50.476;15.588;2023-02-21T05:36:13;3.60;;;2.00;;
73107;SDS011;61559;50.476;15.588;2023-02-21T05:38:46;3.00;;;1.50;;
73107;SDS011;61559;50.476;15.588;2023-02-21T05:41:18;2.30;;;1.40;;
73107;SDS011;61559;50.476;15.588;2023-02-21T05:43:50;3.10;;;1.70;;
73107;SDS011;61559;50.476;15.588;2023-02-21T05:46:22;3.20;;;2.00;;
73107;SDS011;61559;50.476;15.588;2023-02-21T05:48:55;2.40;;;1.80;;
73107;SDS011;61559;50.476;15.588;2023-02-21T05:51:27;2.60;;;1.90;;
73107;SDS011;61559;50.476;15.588;2023-02-21T05:54:01;2.90;;;2.00;;
73107;SDS011;61559;50.476;15.588;2023-02-21T05:56:37;4.40;;;1.80;;
73107;SDS011;61559;50.476;15.588;2023-02-21T05:59:10;2.30;;;1.60;;
73107;SDS011;61559;50.476;15.588;2023-02-21T06:01:41;3.40;;;1.70;;
73107;SDS011;61559;50.476;15.588;2023-02-21T06:04:12;2.80;;;1.70;;
73107;SDS011;61559;50.476;15.588;2023-02-21T06:06:44;4.90;;;1.80;;
73107;SDS011;61559;50.476;15.588;2023-02-21T06:09:15;3.90;;;2.00;;
73107;SDS011;61559;50.476;15.588;2023-02-21T06:11:47;4.80;;;1.90;;
73107;SDS011;61559;50.476;15.588;2023-02-21T06:14:18;4.50;;;2.00;;
73107;SDS011;61559;50.476;15.588;2023-02-21T06:16:50;8.40;;;3.40;;
73107;SDS011;61559;50.476;15.588;2023-02-21T06:19:21;6.00;;;2.90;;
73107;SDS011;61559;50.476;15.588;2023-02-21T06:21:52;9.70;;;3.90;;
73107;SDS011;61559;50.476;15.588;2023-02-21T06:24:23;4.50;;;2.00;;
73107;SDS011;61559;50.476;15.588;2023-02-21T06:26:54;23.20;;;12.40;;
73107;SDS011;61559;50.476;15.588;2023-02-21T06:29:26;53.70;;;23.30;;
73107;SDS011;61559;50.476;15.588;2023-02-21T06:31:57;25.00;;;11.70;;
73107;SDS011;61559;50.476;15.588;2023-02-21T06:34:30;9.40;;;5.50;;
73107;SDS011;61559;50.476;15.588;2023-02-21T06:37:02;8.00;;;4.80;;
73107;SDS011;61559;50.476;15.588;2023-02-21T06:39:34;6.40;;;3.30;;
73107;SDS011;61559;50.476;15.588;2023-02-21T06:42:06;4.00;;;3.00;;
73107;SDS011;61559;50.476;15.588;2023-02-21T06:44:40;4.50;;;2.40;;
73107;SDS011;61559;50.476;15.588;2023-02-21T06:47:13;5.70;;;3.30;;
73107;SDS011;61559;50.476;15.588;2023-02-21T06:49:44;3.60;;;2.10;;
73107;SDS011;61559;50.476;15.588;2023-02-21T06:52:15;4.30;;;2.30;;
73107;SDS011;61559;50.476;15.588;2023-02-21T06:54:46;4.80;;;2.20;;
73107;SDS011;61559;50.476;15.588;2023-02-21T06:57:19;4.10;;;1.90;;
73107;SDS011;61559;50.476;15.588;2023-02-21T06:59:50;3.20;;;2.10;;
73107;SDS011;61559;50.476;15.588;2023-02-21T07:02:21;5.50;;;2.80;;
73107;SDS011;61559;50.476;15.588;2023-02-21T07:07:21;13.40;;;6.20;;
73107;SDS011;61559;50.476;15.588;2023-02-21T07:09:52;8.30;;;4.10;;
73107;SDS011;61559;50.476;15.588;2023-02-21T07:12:23;4.40;;;2.30;;
73107;SDS011;61559;50.476;15.588;2023-02-21T07:14:54;5.30;;;2.90;;
73107;SDS011;61559;50.476;15.588;2023-02-21T07:17:26;5.50;;;4.00;;
73107;SDS011;61559;50.476;15.588;2023-02-21T07:19:57;7.00;;;2.60;;
73107;SDS011;61559;50.476;15.588;2023-02-21T07:22:28;4.10;;;2.30;;
73107;SDS011;61559;50.476;15.588;2023-02-21T07:25:01;47.20;;;21.00;;
73107;SDS011;61559;50.476;15.588;2023-02-21T07:27:32;6.30;;;3.70;;
73107;SDS011;61559;50.476;15.588;2023-02-21T07:30:04;4.50;;;2.40;;
73107;SDS011;61559;50.476;15.588;2023-02-21T07:32:36;4.60;;;2.60;;
73107;SDS011;61559;50.476;15.588;2023-02-21T07:37:37;4.80;;;2.00;;
73107;SDS011;61559;50.476;15.588;2023-02-21T07:42:41;6.00;;;3.00;;
73107;SDS011;61559;50.476;15.588;2023-02-21T07:45:12;17.20;;;8.20;;
73107;SDS011;61559;50.476;15.588;2023-02-21T07:47:45;12.20;;;6.60;;
73107;SDS011;61559;50.476;15.588;2023-02-21T07:50:18;3.80;;;2.00;;
73107;SDS011;61559;50.476;15.588;2023-02-21T07:52:50;3.10;;;2.10;;
73107;SDS011;61559;50.476;15.588;2023-02-21T07:55:22;4.00;;;2.00;;
73107;SDS011;61559;50.476;15.588;2023-02-21T07:57:53;4.90;;;2.40;;
73107;SDS011;61559;50.476;15.588;2023-02-21T08:00:24;9.90;;;5.60;;
73107;SDS011;61559;50.476;15.588;2023-02-21T08:02:55;4.20;;;2.40;;
73107;SDS011;61559;50.476;15.588;2023-02-21T08:05:27;5.50;;;2.80;;
73107;SDS011;61559;50.476;15.588;2023-02-21T08:10:30;3.60;;;2.60;;
73107;SDS011;61559;50.476;15.588;2023-02-21T08:13:02;5.00;;;3.10;;
73107;SDS011;61559;50.476;15.588;2023-02-21T08:15:33;3.70;;;2.00;;
73107;SDS011;61559;50.476;15.588;2023-02-21T08:18:04;4.30;;;3.10;;
73107;SDS011;61559;50.476;15.588;2023-02-21T08:20:46;5.40;;;3.00;;
73107;SDS011;61559;50.476;15.588;2023-02-21T08:23:17;6.00;;;3.90;;
73107;SDS011;61559;50.476;15.588;2023-02-21T08:25:49;5.70;;;2.40;;
73107;SDS011;61559;50.476;15.588;2023-02-21T08:28:20;5.60;;;3.30;;
73107;SDS011;61559;50.476;15.588;2023-02-21T08:33:21;4.40;;;2.90;;
73107;SDS011;61559;50.476;15.588;2023-02-21T08:35:53;6.70;;;2.80;;
73107;SDS011;61559;50.476;15.588;2023-02-21T08:38:24;5.20;;;3.10;;
73107;SDS011;61559;50.476;15.588;2023-02-21T08:40:55;5.40;;;2.60;;
73107;SDS011;61559;50.476;15.588;2023-02-21T08:43:28;3.10;;;2.20;;
73107;SDS011;61559;50.476;15.588;2023-02-21T08:45:59;3.90;;;2.70;;
73107;SDS011;61559;50.476;15.588;2023-02-21T08:48:31;3.30;;;2.30;;
73107;SDS011;61559;50.476;15.588;2023-02-21T08:51:03;3.40;;;2.60;;
73107;SDS011;61559;50.476;15.588;2023-02-21T08:53:34;3.90;;;2.70;;
73107;SDS011;61559;50.476;15.588;2023-02-21T08:58:35;3.40;;;2.10;;
73107;SDS011;61559;50.476;15.588;2023-02-21T09:03:35;7.20;;;3.00;;
73107;SDS011;61559;50.476;15.588;2023-02-21T09:06:07;6.70;;;3.00;;
73107;SDS011;61559;50.476;15.588;2023-02-21T09:08:39;5.50;;;3.30;;
73107;SDS011;61559;50.476;15.588;2023-02-21T09:13:39;5.90;;;3.00;;
73107;SDS011;61559;50.476;15.588;2023-02-21T09:16:10;7.50;;;3.10;;
73107;SDS011;61559;50.476;15.588;2023-02-21T09:21:11;8.50;;;3.70;;
73107;SDS011;61559;50.476;15.588;2023-02-21T09:23:42;4.80;;;2.10;;
73107;SDS011;61559;50.476;15.588;2023-02-21T09:26:13;4.40;;;2.20;;
73107;SDS011;61559;50.476;15.588;2023-02-21T09:33:45;9.70;;;3.90;;
73107;SDS011;61559;50.476;15.588;2023-02-21T09:36:16;4.00;;;1.80;;
73107;SDS011;61559;50.476;15.588;2023-02-21T09:38:50;11.20;;;4.80;;
73107;SDS011;61559;50.476;15.588;2023-02-21T09:41:21;6.10;;;3.40;;
73107;SDS011;61559;50.476;15.588;2023-02-21T09:46:24;3.50;;;1.90;;
73107;SDS011;61559;50.476;15.588;2023-02-21T09:49:03;5.10;;;1.60;;
73107;SDS011;61559;50.476;15.588;2023-02-21T09:51:40;3.60;;;2.00;;
73107;SDS011;61559;50.476;15.588;2023-02-21T09:54:15;3.70;;;1.80;;
73107;SDS011;61559;50.476;15.588;2023-02-21T09:56:52;5.60;;;2.00;;
73107;SDS011;61559;50.476;15.588;2023-02-21T09:59:26;4.20;;;2.30;;
73107;SDS011;61559;50.476;15.588;2023-02-21T10:02:00;5.70;;;2.50;;
73107;SDS011;61559;50.476;15.588;2023-02-21T10:04:46;3.30;;;1.70;;
73107;SDS011;61559;50.476;15.588;2023-02-21T10:07:30;3.50;;;1.90;;
73107;SDS011;61559;50.476;15.588;2023-02-21T10:10:10;3.40;;;1.70;;
73107;SDS011;61559;50.476;15.588;2023-02-21T10:12:48;5.60;;;2.80;;
73107;SDS011;61559;50.476;15.588;2023-02-21T10:15:32;4.00;;;2.90;;
73107;SDS011;61559;50.476;15.588;2023-02-21T10:18:12;4.10;;;2.90;;
73107;SDS011;61559;50.476;15.588;2023-02-21T10:20:51;4.60;;;4.20;;
73107;SDS011;61559;50.476;15.588;2023-02-21T10:23:26;4.10;;;2.20;;
73107;SDS011;61559;50.476;15.588;2023-02-21T10:26:02;4.70;;;2.10;;
73107;SDS011;61559;50.476;15.588;2023-02-21T10:28:37;2.80;;;1.80;;
73107;SDS011;61559;50.476;15.588;2023-02-21T10:31:10;4.00;;;2.40;;
73107;SDS011;61559;50.476;15.588;2023-02-21T10:33:45;4.30;;;2.20;;
73107;SDS011;61559;50.476;15.588;2023-02-21T10:38:49;3.50;;;2.10;;
73107;SDS011;61559;50.476;15.588;2023-02-21T10:41:26;4.00;;;1.60;;
73107;SDS011;61559;50.476;15.588;2023-02-21T10:44:00;3.10;;;1.90;;
73107;SDS011;61559;50.476;15.588;2023-02-21T10:46:39;2.70;;;1.60;;
73107;SDS011;61559;50.476;15.588;2023-02-21T10:49:21;2.60;;;1.60;;
73107;SDS011;61559;50.476;15.588;2023-02-21T10:52:03;2.50;;;1.80;;
73107;SDS011;61559;50.476;15.588;2023-02-21T10:54:37;3.00;;;1.40;;
73107;SDS011;61559;50.476;15.588;2023-02-21T10:57:09;3.90;;;1.50;;
73107;SDS011;61559;50.476;15.588;2023-02-21T10:59:44;3.80;;;1.80;;
73107;SDS011;61559;50.476;15.588;2023-02-21T11:02:31;3.30;;;1.80;;
73107;SDS011;61559;50.476;15.588;2023-02-21T11:05:08;2.10;;;1.60;;
73107;SDS011;61559;50.476;15.588;2023-02-21T11:07:42;1.80;;;1.40;;
73107;SDS011;61559;50.476;15.588;2023-02-21T11:10:31;2.30;;;1.80;;
73107;SDS011;61559;50.476;15.588;2023-02-21T11:13:16;2.00;;;1.50;;
73107;SDS011;61559;50.476;15.588;2023-02-21T11:15:49;2.80;;;1.50;;
73107;SDS011;61559;50.476;15.588;2023-02-21T11:18:38;2.20;;;1.30;;
73107;SDS011;61559;50.476;15.588;2023-02-21T11:21:13;2.60;;;1.80;;
73107;SDS011;61559;50.476;15.588;2023-02-21T11:23:46;3.30;;;2.20;;
73107;SDS011;61559;50.476;15.588;2023-02-21T11:26:26;2.90;;;1.40;;
73107;SDS011;61559;50.476;15.588;2023-02-21T11:29:04;8.20;;;4.00;;
73107;SDS011;61559;50.476;15.588;2023-02-21T11:31:40;8.10;;;3.30;;
73107;SDS011;61559;50.476;15.588;2023-02-21T11:34:12;4.50;;;2.40;;
73107;SDS011;61559;50.476;15.588;2023-02-21T11:36:46;2.00;;;1.30;;
73107;SDS011;61559;50.476;15.588;2023-02-21T11:39:18;2.90;;;1.20;;
73107;SDS011;61559;50.476;15.588;2023-02-21T11:41:56;1.60;;;0.90;;
73107;SDS011;61559;50.476;15.588;2023-02-21T11:44:31;7.10;;;3.30;;
73107;SDS011;61559;50.476;15.588;2023-02-21T11:47:08;2.30;;;1.80;;
73107;SDS011;61559;50.476;15.588;2023-02-21T11:49:48;1.40;;;0.90;;
73107;SDS011;61559;50.476;15.588;2023-02-21T11:52:28;2.90;;;1.40;;
73107;SDS011;61559;50.476;15.588;2023-02-21T11:55:03;1.80;;;1.30;;
73107;SDS011;61559;50.476;15.588;2023-02-21T11:57:42;1.90;;;1.20;;
73107;SDS011;61559;50.476;15.588;2023-02-21T12:00:22;3.60;;;1.60;;
73107;SDS011;61559;50.476;15.588;2023-02-21T12:06:01;4.20;;;2.30;;
73107;SDS011;61559;50.476;15.588;2023-02-21T12:08:41;7.70;;;3.90;;
73107;SDS011;61559;50.476;15.588;2023-02-21T12:11:30;4.20;;;2.40;;
73107;SDS011;61559;50.476;15.588;2023-02-21T12:17:06;4.40;;;2.40;;
73107;SDS011;61559;50.476;15.588;2023-02-21T12:19:55;4.00;;;2.00;;
73107;SDS011;61559;50.476;15.588;2023-02-21T12:22:42;5.80;;;2.60;;
73107;SDS011;61559;50.476;15.588;2023-02-21T12:25:25;7.20;;;2.80;;
73107;SDS011;61559;50.476;15.588;2023-02-21T12:28:03;3.80;;;1.80;;
73107;SDS011;61559;50.476;15.588;2023-02-21T12:30:51;2.90;;;1.50;;
73107;SDS011;61559;50.476;15.588;2023-02-21T12:33:40;3.60;;;2.40;;
73107;SDS011;61559;50.476;15.588;2023-02-21T12:36:23;5.90;;;2.30;;
73107;SDS011;61559;50.476;15.588;2023-02-21T12:39:08;4.20;;;1.70;;
73107;SDS011;61559;50.476;15.588;2023-02-21T12:41:59;3.40;;;2.30;;
73107;SDS011;61559;50.476;15.588;2023-02-21T12:44:48;2.30;;;1.40;;
73107;SDS011;61559;50.476;15.588;2023-02-21T12:47:28;4.60;;;2.50;;
73107;SDS011;61559;50.476;15.588;2023-02-21T12:50:05;5.00;;;1.80;;
73107;SDS011;61559;50.476;15.588;2023-02-21T12:52:52;3.80;;;1.80;;
73107;SDS011;61559;50.476;15.588;2023-02-21T12:55:31;2.70;;;1.20;;
73107;SDS011;61559;50.476;15.588;2023-02-21T12:58:10;2.70;;;1.20;;
73107;SDS011;61559;50.476;15.588;2023-02-21T13:00:46;5.40;;;2.20;;
73107;SDS011;61559;50.476;15.588;2023-02-21T13:03:34;3.20;;;1.50;;
73107;SDS011;61559;50.476;15.588;2023-02-21T13:06:12;4.90;;;1.80;;
73107;SDS011;61559;50.476;15.588;2023-02-21T13:11:23;6.90;;;3.00;;
73107;SDS011;61559;50.476;15.588;2023-02-21T13:13:59;8.50;;;3.90;;
73107;SDS011;61559;50.476;15.588;2023-02-21T13:16:36;2.60;;;1.40;;
73107;SDS011;61559;50.476;15.588;2023-02-21T13:19:08;4.30;;;2.00;;
73107;SDS011;61559;50.476;15.588;2023-02-21T13:21:58;6.30;;;2.60;;
73107;SDS011;61559;50.476;15.588;2023-02-21T13:24:58;9.70;;;6.50;;
73107;SDS011;61559;50.476;15.588;2023-02-21T13:27:53;22.00;;;11.20;;
73107;SDS011;61559;50.476;15.588;2023-02-21T13:30:38;4.50;;;3.70;;
73107;SDS011;61559;50.476;15.588;2023-02-21T13:33:28;13.00;;;7.10;;
73107;SDS011;61559;50.476;15.588;2023-02-21T13:36:15;15.00;;;8.00;;
73107;SDS011;61559;50.476;15.588;2023-02-21T13:38:59;4.40;;;1.80;;
73107;SDS011;61559;50.476;15.588;2023-02-21T13:41:34;2.10;;;1.30;;
73107;SDS011;61559;50.476;15.588;2023-02-21T13:44:10;3.10;;;1.70;;
73107;SDS011;61559;50.476;15.588;2023-02-21T13:49:42;2.00;;;1.30;;
73107;SDS011;61559;50.476;15.588;2023-02-21T13:52:51;2.90;;;1.70;;
73107;SDS011;61559;50.476;15.588;2023-02-21T13:55:31;3.00;;;1.50;;
73107;SDS011;61559;50.476;15.588;2023-02-21T14:10:35;5.90;;;3.50;;
73107;SDS011;61559;50.476;15.588;2023-02-21T14:13:18;24.50;;;14.30;;
73107;SDS011;61559;50.476;15.588;2023-02-21T14:15:57;11.10;;;6.70;;
73107;SDS011;61559;50.476;15.588;2023-02-21T14:18:39;4.30;;;2.90;;
73107;SDS011;61559;50.476;15.588;2023-02-21T14:21:14;6.90;;;3.90;;
73107;SDS011;61559;50.476;15.588;2023-02-21T14:26:34;6.10;;;4.30;;
73107;SDS011;61559;50.476;15.588;2023-02-21T14:29:13;8.00;;;4.40;;
73107;SDS011;61559;50.476;15.588;2023-02-21T14:31:57;13.20;;;6.50;;
73107;SDS011;61559;50.476;15.588;2023-02-21T14:34:52;20.90;;;10.50;;
73107;SDS011;61559;50.476;15.588;2023-02-21T14:37:27;7.70;;;4.10;;
73107;SDS011;61559;50.476;15.588;2023-02-21T14:40:03;13.80;;;9.70;;
73107;SDS011;61559;50.476;15.588;2023-02-21T14:42:53;11.20;;;7.10;;
73107;SDS011;61559;50.476;15.588;2023-02-21T14:45:38;5.00;;;3.60;;
73107;SDS011;61559;50.476;15.588;2023-02-21T14:57:25;6.30;;;3.10;;
73107;SDS011;61559;50.476;15.588;2023-02-21T15:00:19;4.60;;;3.30;;
73107;SDS011;61559;50.476;15.588;2023-02-21T15:02:55;8.50;;;4.80;;
73107;SDS011;61559;50.476;15.588;2023-02-21T15:05:37;6.60;;;3.30;;
73107;SDS011;61559;50.476;15.588;2023-02-21T15:08:13;5.70;;;2.90;;
73107;SDS011;61559;50.476;15.588;2023-02-21T15:10:47;5.20;;;2.70;;
73107;SDS011;61559;50.476;15.588;2023-02-21T15:13:21;6.10;;;4.40;;
73107;SDS011;61559;50.476;15.588;2023-02-21T15:15:55;6.20;;;2.70;;
73107;SDS011;61559;50.476;15.588;2023-02-21T15:18:28;8.70;;;4.60;;
73107;SDS011;61559;50.476;15.588;2023-02-21T15:21:02;10.40;;;4.70;;
73107;SDS011;61559;50.476;15.588;2023-02-21T15:23:37;7.30;;;3.40;;
73107;SDS011;61559;50.476;15.588;2023-02-21T15:26:17;7.50;;;3.90;;
73107;SDS011;61559;50.476;15.588;2023-02-21T15:29:03;10.10;;;5.40;;
73107;SDS011;61559;50.476;15.588;2023-02-21T15:31:38;8.30;;;3.80;;
73107;SDS011;61559;50.476;15.588;2023-02-21T15:34:15;10.40;;;4.90;;
73107;SDS011;61559;50.476;15.588;2023-02-21T15:36:48;21.20;;;9.30;;
73107;SDS011;61559;50.476;15.588;2023-02-21T15:39:28;15.10;;;7.10;;
73107;SDS011;61559;50.476;15.588;2023-02-21T15:42:02;36.30;;;14.60;;
73107;SDS011;61559;50.476;15.588;2023-02-21T15:44:37;39.80;;;17.80;;
73107;SDS011;61559;50.476;15.588;2023-02-21T15:47:13;16.30;;;7.30;;
73107;SDS011;61559;50.476;15.588;2023-02-21T15:49:52;41.30;;;16.30;;
73107;SDS011;61559;50.476;15.588;2023-02-21T15:52:33;31.80;;;11.30;;
73107;SDS011;61559;50.476;15.588;2023-02-21T15:55:25;11.80;;;6.10;;
73107;SDS011;61559;50.476;15.588;2023-02-21T15:57:59;35.00;;;13.70;;
73107;SDS011;61559;50.476;15.588;2023-02-21T16:00:38;46.50;;;21.90;;
73107;SDS011;61559;50.476;15.588;2023-02-21T16:03:30;15.60;;;8.10;;
73107;SDS011;61559;50.476;15.588;2023-02-21T16:06:10;21.70;;;14.70;;
73107;SDS011;61559;50.476;15.588;2023-02-21T16:08:53;27.20;;;13.90;;
73107;SDS011;61559;50.476;15.588;2023-02-21T16:11:40;16.30;;;11.10;;
73107;SDS011;61559;50.476;15.588;2023-02-21T16:14:18;8.50;;;5.00;;
73107;SDS011;61559;50.476;15.588;2023-02-21T16:17:07;24.30;;;10.60;;
73107;SDS011;61559;50.476;15.588;2023-02-21T16:19:46;17.50;;;7.40;;
73107;SDS011;61559;50.476;15.588;2023-02-21T16:22:23;20.30;;;8.40;;
73107;SDS011;61559;50.476;15.588;2023-02-21T16:25:11;9.30;;;4.50;;
73107;SDS011;61559;50.476;15.588;2023-02-21T16:27:46;9.60;;;4.70;;
73107;SDS011;61559;50.476;15.588;2023-02-21T16:30:20;12.40;;;5.80;;
73107;SDS011;61559;50.476;15.588;2023-02-21T16:32:53;13.50;;;8.60;;
73107;SDS011;61559;50.476;15.588;2023-02-21T16:35:32;15.90;;;7.50;;
73107;SDS011;61559;50.476;15.588;2023-02-21T16:38:03;20.80;;;9.00;;
73107;SDS011;61559;50.476;15.588;2023-02-21T16:40:36;21.70;;;9.80;;
73107;SDS011;61559;50.476;15.588;2023-02-21T16:43:07;10.60;;;5.70;;
73107;SDS011;61559;50.476;15.588;2023-02-21T16:45:46;12.90;;;6.30;;
73107;SDS011;61559;50.476;15.588;2023-02-21T16:48:20;9.60;;;6.20;;
73107;SDS011;61559;50.476;15.588;2023-02-21T16:50:55;15.00;;;10.20;;
73107;SDS011;61559;50.476;15.588;2023-02-21T16:53:27;9.80;;;7.20;;
73107;SDS011;61559;50.476;15.588;2023-02-21T16:55:59;8.80;;;5.40;;
73107;SDS011;61559;50.476;15.588;2023-02-21T16:58:32;13.40;;;7.10;;
73107;SDS011;61559;50.476;15.588;2023-02-21T17:01:06;14.30;;;6.90;;
73107;SDS011;61559;50.476;15.588;2023-02-21T17:03:41;9.70;;;5.20;;
73107;SDS011;61559;50.476;15.588;2023-02-21T17:06:15;13.60;;;6.00;;
73107;SDS011;61559;50.476;15.588;2023-02-21T17:08:48;22.00;;;9.00;;
73107;SDS011;61559;50.476;15.588;2023-02-21T17:11:19;16.40;;;6.40;;